Time;durP1;ratioP1;P1;durP2;ratioP2;P2;SDS_P1;SDS_P2;PMS_P1;PMS_P2;Temp;Humidity;BMP_temperature;BMP_pressure;BME280_temperature;BME280_humidity;BME280_pressure;Samples;Min_cycle;Max_cycle;Signal;HPM_P1;HPM_P2
2023/07/12 00:01:32;;;;;;;5.82;3.03;;;12.60;99.90;;;;;;4993738;28;20262;-75
2023/07/12 00:04:04;;;;;;;6.45;3.40;;;12.70;99.90;;;;;;4995047;28;20203;-76
2023/07/12 00:06:38;;;;;;;8.57;3.50;;;12.80;99.90;;;;;;4993068;28;20208;-75
2023/07/12 00:09:16;;;;;;;7.55;3.97;;;12.90;99.90;;;;;;4992312;28;20211;-76
2023/07/12 00:11:48;;;;;;;7.03;3.75;;;13.10;99.90;;;;;;4991037;28;20195;-75
2023/07/12 00:14:19;;;;;;;7.70;3.97;;;13.20;99.90;;;;;;4990831;28;20576;-75
2023/07/12 00:16:50;;;;;;;4.95;3.30;;;13.30;99.90;;;;;;4984690;28;20196;-75
2023/07/12 00:19:21;;;;;;;4.70;3.42;;;13.30;99.90;;;;;;4985475;28;20283;-75
2023/07/12 00:21:52;;;;;;;6.43;3.25;;;13.40;99.90;;;;;;4993394;28;20203;-74
2023/07/12 00:24:25;;;;;;;5.25;3.10;;;13.60;99.90;;;;;;4994730;28;20188;-75
2023/07/12 00:26:58;;;;;;;5.05;3.22;;;13.70;99.90;;;;;;4984276;28;20200;-75
2023/07/12 00:29:29;;;;;;;6.18;3.38;;;13.80;99.90;;;;;;4992293;28;20578;-75
2023/07/12 00:32:00;;;;;;;7.28;3.70;;;13.80;99.90;;;;;;4989205;28;20668;-75
2023/07/12 00:34:31;;;;;;;7.72;3.38;;;14.00;99.90;;;;;;4993775;28;20199;-74
2023/07/12 00:37:02;;;;;;;5.07;2.95;;;14.10;99.90;;;;;;4991435;28;20222;-74
2023/07/12 00:39:35;;;;;;;5.30;3.05;;;14.40;99.90;;;;;;4990652;28;20295;-75
2023/07/12 00:42:14;;;;;;;4.90;2.70;;;14.30;99.90;;;;;;4989036;28;20214;-74
2023/07/12 00:44:50;;;;;;;6.35;3.05;;;14.40;99.90;;;;;;4991071;28;20368;-75
2023/07/12 00:47:22;;;;;;;4.57;2.90;;;14.50;99.90;;;;;;4983766;28;20195;-75
2023/07/12 00:49:53;;;;;;;6.25;3.13;;;14.60;99.90;;;;;;4993593;28;20678;-75
2023/07/12 00:52:25;;;;;;;4.13;2.70;;;14.60;99.90;;;;;;4993596;28;20266;-75
2023/07/12 00:54:59;;;;;;;10.82;3.80;;;14.80;99.90;;;;;;4993872;28;20203;-75
2023/07/12 00:57:32;;;;;;;5.82;2.92;;;14.80;99.90;;;;;;4994027;28;20207;-75
2023/07/12 01:00:10;;;;;;;10.23;3.10;;;14.80;99.90;;;;;;4993789;28;20222;-75
2023/07/12 01:02:43;;;;;;;6.05;2.65;;;14.90;99.90;;;;;;4994181;28;20199;-75
2023/07/12 01:05:15;;;;;;;8.32;2.90;;;15.00;99.90;;;;;;4993987;28;20200;-75
2023/07/12 01:07:46;;;;;;;5.43;2.85;;;15.10;99.90;;;;;;4993967;28;20200;-75
2023/07/12 01:10:19;;;;;;;5.45;2.90;;;15.30;99.90;;;;;;4994012;28;20192;-75
2023/07/12 01:12:49;;;;;;;5.82;2.83;;;15.50;99.90;;;;;;4993952;28;20214;-75
2023/07/12 01:15:21;;;;;;;4.13;2.63;;;15.50;99.90;;;;;;4993729;28;20212;-75
2023/07/12 01:17:52;;;;;;;6.57;2.60;;;15.80;99.90;;;;;;4993893;28;20200;-75
2023/07/12 01:20:25;;;;;;;5.15;2.53;;;15.80;99.90;;;;;;4993560;28;20560;-75
2023/07/12 01:22:59;;;;;;;5.68;2.50;;;15.90;99.90;;;;;;4993612;28;20196;-75
2023/07/12 01:25:37;;;;;;;5.53;2.45;;;16.00;99.90;;;;;;4993631;28;20188;-75
2023/07/12 01:28:08;;;;;;;6.00;2.20;;;16.10;99.90;;;;;;4993688;28;20234;-75
2023/07/12 01:30:40;;;;;;;6.82;2.80;;;16.20;99.90;;;;;;4993453;28;20751;-75
2023/07/12 01:33:11;;;;;;;6.53;2.70;;;16.40;99.90;;;;;;4994058;28;20195;-75
2023/07/12 01:35:43;;;;;;;3.92;2.45;;;16.60;99.90;;;;;;4993814;28;20202;-75
2023/07/12 01:38:16;;;;;;;3.13;2.28;;;16.70;99.90;;;;;;4993752;28;20227;-75
2023/07/12 01:40:47;;;;;;;4.55;2.22;;;16.80;99.90;;;;;;4993752;28;20566;-76
2023/07/12 01:43:18;;;;;;;4.53;1.90;;;16.80;99.90;;;;;;4974088;28;20197;-75
2023/07/12 01:45:49;;;;;;;3.35;1.80;;;16.90;99.90;;;;;;4974670;28;20195;-75
2023/07/12 01:48:20;;;;;;;5.18;1.90;;;16.90;99.90;;;;;;4983017;28;20253;-75
2023/07/12 01:50:51;;;;;;;3.25;1.60;;;17.00;99.90;;;;;;4993605;28;20227;-75
2023/07/12 01:53:25;;;;;;;3.92;1.55;;;17.10;99.90;;;;;;4993830;28;20192;-73
2023/07/12 01:55:56;;;;;;;3.53;1.20;;;17.20;99.90;;;;;;4993607;28;20203;-74
2023/07/12 01:58:27;;;;;;;2.47;1.60;;;17.30;99.90;;;;;;4993752;28;20208;-74
2023/07/12 02:00:58;;;;;;;3.10;1.45;;;17.40;99.90;;;;;;4993380;28;20231;-74
2023/07/12 02:03:30;;;;;;;3.40;1.50;;;17.50;99.90;;;;;;4993538;28;20643;-73
2023/07/12 02:06:01;;;;;;;7.80;1.70;;;17.60;99.90;;;;;;4993255;28;20211;-74
2023/07/12 02:08:34;;;;;;;2.17;1.20;;;17.80;99.90;;;;;;4993250;28;20215;-74
2023/07/12 02:11:05;;;;;;;3.00;1.15;;;17.90;99.90;;;;;;4993390;28;20191;-74
2023/07/12 02:13:36;;;;;;;2.30;1.10;;;17.90;99.90;;;;;;4993140;28;20199;-73
2023/07/12 02:16:08;;;;;;;2.47;1.00;;;18.00;99.90;;;;;;4993720;28;20196;-74
2023/07/12 02:18:39;;;;;;;1.27;0.90;;;18.00;99.90;;;;;;4993347;28;20192;-74
2023/07/12 02:21:10;;;;;;;2.50;1.05;;;18.10;99.90;;;;;;4993622;28;20192;-74
2023/07/12 02:23:43;;;;;;;3.65;1.10;;;18.20;99.90;;;;;;4992852;28;20210;-74
2023/07/12 02:26:14;;;;;;;3.85;1.10;;;18.20;99.90;;;;;;4993578;28;20196;-74
2023/07/12 02:28:45;;;;;;;2.25;1.10;;;18.30;99.90;;;;;;4991735;28;20230;-74
2023/07/12 02:31:22;;;;;;;3.63;1.15;;;18.30;99.90;;;;;;4992397;28;20691;-74
2023/07/12 02:33:54;;;;;;;2.53;0.90;;;18.40;99.90;;;;;;4985267;28;20211;-74
2023/07/12 02:36:25;;;;;;;3.80;0.90;;;18.30;99.90;;;;;;4988516;28;20203;-74
2023/07/12 02:38:58;;;;;;;3.45;1.10;;;18.40;99.90;;;;;;4992003;28;20204;-75
2023/07/12 02:41:29;;;;;;;2.63;0.90;;;18.50;99.90;;;;;;4991748;28;20201;-74
2023/07/12 02:44:00;;;;;;;3.53;0.95;;;18.60;99.90;;;;;;4977342;28;20192;-74
2023/07/12 02:46:31;;;;;;;5.15;1.02;;;18.70;99.90;;;;;;4988714;28;20666;-74
2023/07/12 02:49:02;;;;;;;2.22;1.00;;;18.60;99.90;;;;;;4996498;28;20314;-74
2023/07/12 02:51:34;;;;;;;3.22;1.17;;;18.70;99.90;;;;;;4996492;28;20699;-74
2023/07/12 02:54:07;;;;;;;2.42;0.90;;;18.80;99.90;;;;;;4996365;28;20187;-74
2023/07/12 02:56:38;;;;;;;3.00;0.90;;;18.80;99.90;;;;;;4996070;28;20215;-74
2023/07/12 02:59:10;;;;;;;3.38;1.20;;;18.80;99.90;;;;;;4996278;28;20618;-74
2023/07/12 03:01:41;;;;;;;2.95;0.90;;;18.90;99.90;;;;;;4995872;28;20238;-75
2023/07/12 03:04:16;;;;;;;2.45;1.08;;;19.00;99.90;;;;;;4996617;28;20197;-74
2023/07/12 03:06:47;;;;;;;1.90;0.90;;;19.00;99.90;;;;;;4996198;28;20198;-74
2023/07/12 03:09:20;;;;;;;1.60;0.90;;;19.10;99.90;;;;;;4996151;28;20730;-74
2023/07/12 03:11:51;;;;;;;1.15;0.70;;;19.20;99.90;;;;;;4996021;28;20187;-74
2023/07/12 03:14:23;;;;;;;1.08;0.80;;;19.20;99.90;;;;;;4995790;28;20203;-74
2023/07/12 03:16:55;;;;;;;2.13;1.10;;;19.30;99.90;;;;;;4996013;28;20196;-74
2023/07/12 03:19:26;;;;;;;4.10;2.05;;;19.30;99.90;;;;;;4996367;28;20188;-74
2023/07/12 03:21:57;;;;;;;3.10;1.33;;;19.30;99.90;;;;;;4995929;28;20192;-74
2023/07/12 03:24:31;;;;;;;2.92;0.90;;;19.30;99.90;;;;;;4995781;28;20192;-74
2023/07/12 03:27:02;;;;;;;1.67;0.80;;;19.40;99.90;;;;;;4995776;28;20196;-75
2023/07/12 03:29:33;;;;;;;3.28;1.08;;;19.50;99.90;;;;;;4995456;28;20249;-74
2023/07/12 03:32:05;;;;;;;2.15;0.80;;;19.60;99.90;;;;;;4995755;28;20192;-74
2023/07/12 03:34:36;;;;;;;1.38;0.70;;;19.60;99.90;;;;;;4995558;28;20195;-74
2023/07/12 03:37:07;;;;;;;5.00;1.45;;;19.50;99.90;;;;;;4995669;28;20654;-75
2023/07/12 03:39:41;;;;;;;2.10;0.70;;;19.40;99.90;;;;;;4995437;28;20191;-74
2023/07/12 03:42:12;;;;;;;3.50;1.40;;;19.40;99.90;;;;;;4995952;28;20196;-74
2023/07/12 03:44:43;;;;;;;2.30;0.90;;;19.40;99.90;;;;;;4995063;28;20198;-75
2023/07/12 03:47:14;;;;;;;4.90;1.20;;;19.50;99.90;;;;;;4995289;28;20208;-75
2023/07/12 03:49:45;;;;;;;2.05;0.80;;;19.50;99.90;;;;;;4995423;28;20216;-75
2023/07/12 03:52:16;;;;;;;3.20;1.30;;;19.50;99.90;;;;;;4995350;28;20699;-74
2023/07/12 03:54:50;;;;;;;3.42;1.20;;;19.50;99.90;;;;;;4995275;28;20202;-74
2023/07/12 03:57:21;;;;;;;2.38;0.90;;;19.50;99.90;;;;;;4995302;28;20231;-73
2023/07/12 03:59:52;;;;;;;2.45;0.80;;;19.60;99.90;;;;;;4995049;28;20198;-74
2023/07/12 04:02:23;;;;;;;3.28;0.90;;;19.70;99.90;;;;;;4995156;28;20192;-75
2023/07/12 04:04:54;;;;;;;2.60;1.00;;;19.70;99.90;;;;;;4994936;28;20214;-75
2023/07/12 04:07:25;;;;;;;3.42;1.50;;;19.70;99.90;;;;;;4992757;28;20200;-74
2023/07/12 04:09:58;;;;;;;2.95;1.10;;;19.80;99.90;;;;;;4993966;28;20219;-74
2023/07/12 04:12:30;;;;;;;3.90;1.20;;;19.80;99.90;;;;;;4993718;28;20196;-75
2023/07/12 04:15:01;;;;;;;3.25;1.20;;;19.80;99.90;;;;;;4994736;28;20196;-73
2023/07/12 04:17:33;;;;;;;1.67;0.98;;;19.80;99.90;;;;;;4993664;28;20203;-73
2023/07/12 04:20:05;;;;;;;2.10;1.00;;;19.90;99.90;;;;;;4994758;28;20652;-73
2023/07/12 04:22:36;;;;;;;1.48;1.00;;;19.90;99.90;;;;;;4994209;28;20262;-73
2023/07/12 04:25:10;;;;;;;1.77;0.93;;;19.90;99.90;;;;;;4994780;28;20198;-73
2023/07/12 04:27:41;;;;;;;1.50;0.90;;;19.80;99.90;;;;;;4994678;28;20196;-73
2023/07/12 04:30:15;;;;;;;1.83;0.70;;;19.80;99.90;;;;;;4995248;28;20212;-75
2023/07/12 04:32:47;;;;;;;2.45;0.65;;;19.80;99.90;;;;;;4994487;28;20221;-75
2023/07/12 04:35:18;;;;;;;1.80;0.70;;;19.80;99.90;;;;;;4994614;28;20760;-75
2023/07/12 04:37:50;;;;;;;5.00;0.80;;;19.80;99.90;;;;;;4994107;28;20575;-75
2023/07/12 04:40:24;;;;;;;2.13;0.73;;;19.80;99.90;;;;;;4992866;28;20200;-75
2023/07/12 04:42:55;;;;;;;3.00;0.90;;;19.80;99.90;;;;;;4991800;28;20210;-74
2023/07/12 04:45:26;;;;;;;1.40;0.85;;;19.80;99.90;;;;;;4988476;28;20238;-75
2023/07/12 04:47:57;;;;;;;3.60;0.98;;;19.80;99.90;;;;;;4976735;28;20608;-75
2023/07/12 04:50:29;;;;;;;3.40;0.75;;;19.70;99.90;;;;;;4989182;28;20711;-75
2023/07/12 04:53:00;;;;;;;3.03;0.80;;;19.60;99.90;;;;;;4987284;28;20654;-75
2023/07/12 04:55:34;;;;;;;1.58;0.73;;;19.50;99.90;;;;;;4988800;28;20211;-74
2023/07/12 04:58:05;;;;;;;4.25;1.00;;;19.40;99.90;;;;;;4991346;28;20207;-75
2023/07/12 05:00:36;;;;;;;1.85;0.90;;;19.40;99.90;;;;;;4993173;28;20227;-74
2023/07/12 05:03:07;;;;;;;4.63;1.00;;;19.40;99.90;;;;;;4993369;28;20200;-74
2023/07/12 05:05:40;;;;;;;3.97;1.20;;;19.40;99.90;;;;;;4989001;28;20195;-74
2023/07/12 05:08:11;;;;;;;5.03;1.40;;;19.40;99.90;;;;;;4991337;28;20203;-75
2023/07/12 05:10:44;;;;;;;5.63;1.35;;;19.30;99.90;;;;;;4993552;28;20224;-75
2023/07/12 05:13:15;;;;;;;6.90;1.35;;;19.20;99.90;;;;;;4993777;28;20278;-74
2023/07/12 05:15:52;;;;;;;4.82;1.00;;;19.10;99.90;;;;;;4991840;28;20191;-75
2023/07/12 05:18:24;;;;;;;2.47;0.93;;;19.00;99.90;;;;;;4991706;28;20667;-74
2023/07/12 05:20:55;;;;;;;4.57;0.80;;;19.00;99.90;;;;;;4991377;28;20210;-74
2023/07/12 05:23:27;;;;;;;2.15;0.70;;;19.00;99.90;;;;;;4993399;28;20195;-75
2023/07/12 05:26:00;;;;;;;2.03;0.95;;;19.00;99.90;;;;;;4988441;28;20671;-74
2023/07/12 05:28:31;;;;;;;2.60;1.00;;;18.90;99.90;;;;;;4991201;28;20554;-75
2023/07/12 05:31:07;;;;;;;2.67;0.70;;;18.90;99.90;;;;;;4978707;28;20223;-74
2023/07/12 05:33:38;;;;;;;4.40;0.85;;;18.90;99.90;;;;;;4993471;28;20203;-73
2023/07/12 05:36:10;;;;;;;3.88;0.80;;;18.90;99.90;;;;;;4993722;28;20674;-75
2023/07/12 05:38:41;;;;;;;1.48;0.63;;;18.90;99.90;;;;;;4989276;28;20206;-74
2023/07/12 05:41:14;;;;;;;1.70;0.60;;;18.90;99.90;;;;;;4992581;28;20230;-74
2023/07/12 05:43:45;;;;;;;2.83;0.60;;;18.80;99.90;;;;;;4992499;28;20199;-74
2023/07/12 05:46:16;;;;;;;3.65;0.95;;;18.80;99.90;;;;;;4989855;28;20228;-74
2023/07/12 05:48:47;;;;;;;2.55;0.70;;;18.80;99.90;;;;;;4988991;28;20195;-75
2023/07/12 05:51:18;;;;;;;3.45;0.70;;;18.70;99.90;;;;;;4992707;28;20235;-74
2023/07/12 05:53:49;;;;;;;3.70;1.10;;;18.60;99.90;;;;;;4991454;28;20196;-74
2023/07/12 05:56:22;;;;;;;1.83;0.80;;;18.60;99.90;;;;;;4991420;28;20270;-74
2023/07/12 05:58:53;;;;;;;7.25;1.00;;;18.50;99.90;;;;;;4992878;28;20195;-75
2023/07/12 06:01:26;;;;;;;4.10;0.85;;;18.40;99.90;;;;;;4990406;28;20231;-74
2023/07/12 06:03:57;;;;;;;1.75;0.60;;;18.40;99.90;;;;;;4991715;28;20199;-74
2023/07/12 06:06:28;;;;;;;1.52;0.50;;;18.40;99.90;;;;;;4991618;28;20211;-74
2023/07/12 06:08:59;;;;;;;1.35;0.40;;;18.40;99.90;;;;;;4994838;28;20581;-74
2023/07/12 06:11:32;;;;;;;1.90;0.60;;;18.50;99.90;;;;;;4995475;28;20195;-75
2023/07/12 06:14:04;;;;;;;1.27;0.50;;;18.50;99.90;;;;;;4989854;28;20200;-75
2023/07/12 06:16:35;;;;;;;2.42;0.60;;;18.50;99.90;;;;;;4993007;28;20662;-74
2023/07/12 06:19:06;;;;;;;2.50;0.60;;;18.50;99.90;;;;;;4993443;28;20290;-74
2023/07/12 06:21:37;;;;;;;2.10;0.60;;;18.50;99.90;;;;;;4991906;28;20208;-75
2023/07/12 06:24:09;;;;;;;2.88;0.70;;;18.40;99.90;;;;;;4993147;28;20195;-74
2023/07/12 06:26:42;;;;;;;2.33;0.52;;;18.40;99.90;;;;;;4986946;28;20230;-74
2023/07/12 06:29:14;;;;;;;1.73;0.60;;;18.20;99.90;;;;;;4994539;28;20565;-74
2023/07/12 06:31:46;;;;;;;2.50;0.90;;;18.10;99.90;;;;;;4995025;28;20199;-74
2023/07/12 06:34:17;;;;;;;2.33;0.85;;;18.00;99.90;;;;;;4981897;28;20200;-74
2023/07/12 06:36:49;;;;;;;2.30;0.95;;;17.90;99.90;;;;;;4992150;28;20222;-75
2023/07/12 06:39:20;;;;;;;1.77;0.98;;;17.90;99.90;;;;;;4995222;28;20204;-74
2023/07/12 06:41:54;;;;;;;2.90;0.80;;;17.80;99.90;;;;;;4988691;28;20204;-75
2023/07/12 06:44:25;;;;;;;2.67;0.90;;;17.70;99.90;;;;;;4993703;28;20206;-74
2023/07/12 06:46:56;;;;;;;3.60;1.00;;;17.50;99.90;;;;;;4994448;28;20678;-75
2023/07/12 06:49:27;;;;;;;4.95;0.90;;;17.50;99.90;;;;;;4990440;28;20207;-75
2023/07/12 06:51:58;;;;;;;2.97;0.90;;;17.40;99.90;;;;;;4995307;28;20695;-75
2023/07/12 06:54:29;;;;;;;3.67;0.80;;;17.30;99.90;;;;;;4996276;28;20200;-75
2023/07/12 06:57:02;;;;;;;1.67;0.80;;;17.20;99.90;;;;;;4996238;28;20210;-74
2023/07/12 06:59:33;;;;;;;1.88;0.80;;;17.10;99.90;;;;;;4996188;28;20203;-74
2023/07/12 07:02:05;;;;;;;5.13;1.23;;;17.10;99.90;;;;;;4994952;28;20247;-74
2023/07/12 07:04:36;;;;;;;3.60;0.90;;;17.00;99.90;;;;;;4994242;28;20214;-74
2023/07/12 07:07:08;;;;;;;7.63;1.50;;;16.90;99.90;;;;;;4993595;28;20659;-74
2023/07/12 07:09:39;;;;;;;5.40;1.20;;;16.80;99.90;;;;;;4993646;28;20199;-74
2023/07/12 07:12:13;;;;;;;3.15;1.23;;;16.70;99.90;;;;;;4995326;28;20258;-74
2023/07/12 07:14:44;;;;;;;3.17;0.80;;;16.70;99.90;;;;;;4995323;28;20202;-74
2023/07/12 07:17:15;;;;;;;3.47;1.00;;;16.50;99.90;;;;;;4993940;28;20200;-74
2023/07/12 07:19:46;;;;;;;2.55;0.90;;;16.50;99.90;;;;;;4991285;28;20206;-74
2023/07/12 07:22:17;;;;;;;2.28;0.85;;;16.40;99.90;;;;;;4992954;28;20207;-74
2023/07/12 07:24:48;;;;;;;2.90;0.80;;;16.40;99.90;;;;;;4989640;28;20203;-74
2023/07/12 07:27:22;;;;;;;2.38;0.90;;;16.30;99.90;;;;;;4992121;28;20191;-74
2023/07/12 07:29:54;;;;;;;3.95;1.00;;;16.30;99.90;;;;;;4987071;28;20298;-74
2023/07/12 07:32:25;;;;;;;5.40;1.65;;;16.30;99.90;;;;;;4993175;28;20196;-74
2023/07/12 07:34:56;;;;;;;3.47;1.13;;;16.10;99.90;;;;;;4994827;28;20191;-74
2023/07/12 07:37:27;;;;;;;5.00;1.10;;;16.10;99.90;;;;;;4994664;28;20201;-74
2023/07/12 07:39:58;;;;;;;4.72;0.98;;;16.10;99.90;;;;;;4994142;28;20255;-74
2023/07/12 07:42:31;;;;;;;2.50;1.23;;;16.00;99.90;;;;;;4993647;28;20556;-74
2023/07/12 07:45:02;;;;;;;5.18;1.20;;;15.90;99.90;;;;;;4993767;28;20219;-74
2023/07/12 07:47:34;;;;;;;1.80;0.82;;;15.90;99.90;;;;;;4994620;28;20203;-74
2023/07/12 07:50:05;;;;;;;1.88;0.80;;;15.80;99.90;;;;;;4992393;28;20222;-74
2023/07/12 07:52:37;;;;;;;2.17;1.08;;;15.80;99.90;;;;;;4993994;28;20196;-74
2023/07/12 07:55:08;;;;;;;3.10;1.20;;;15.80;99.90;;;;;;4992205;28;20204;-74
2023/07/12 07:57:42;;;;;;;2.10;0.88;;;15.70;99.90;;;;;;4993163;28;20199;-74
2023/07/12 08:00:14;;;;;;;2.53;0.80;;;15.70;99.90;;;;;;4990012;28;20247;-74
2023/07/12 08:02:46;;;;;;;3.25;0.82;;;15.60;99.90;;;;;;4993012;28;20200;-74
2023/07/12 08:05:18;;;;;;;2.70;1.38;;;15.60;99.90;;;;;;4991783;28;20688;-74
2023/07/12 08:07:50;;;;;;;4.00;1.20;;;15.50;99.90;;;;;;4994058;28;20210;-74
2023/07/12 08:10:22;;;;;;;4.85;1.40;;;15.40;99.90;;;;;;4992542;28;20363;-74
2023/07/12 08:12:56;;;;;;;4.00;1.42;;;15.40;99.90;;;;;;4990505;28;20547;-74
2023/07/12 08:15:28;;;;;;;3.33;1.70;;;15.40;99.90;;;;;;4988164;28;20199;-74
2023/07/12 08:17:59;;;;;;;3.60;1.60;;;15.30;99.90;;;;;;4992639;28;20295;-74
2023/07/12 08:20:30;;;;;;;6.80;1.75;;;15.20;99.90;;;;;;4994037;28;20217;-74
2023/07/12 08:23:02;;;;;;;3.97;1.23;;;15.20;99.90;;;;;;4991418;28;20235;-74
2023/07/12 08:25:33;;;;;;;3.05;1.38;;;15.20;99.90;;;;;;4989847;28;20227;-74
2023/07/12 08:28:07;;;;;;;6.93;1.45;;;15.10;99.90;;;;;;4992726;28;20199;-74
2023/07/12 08:30:39;;;;;;;4.82;1.85;;;15.10;99.90;;;;;;4992028;28;20215;-74
2023/07/12 08:33:10;;;;;;;2.55;1.20;;;15.10;99.90;;;;;;4992198;28;20207;-75
2023/07/12 08:35:41;;;;;;;6.95;1.23;;;15.00;99.90;;;;;;4994268;28;20287;-74
2023/07/12 08:38:12;;;;;;;2.60;1.30;;;15.00;99.90;;;;;;4991189;28;20210;-74
2023/07/12 08:40:53;;;;;;;2.13;1.13;;;15.00;99.90;;;;;;4982593;28;20195;-74
2023/07/12 08:43:30;;;;;;;3.42;1.27;;;14.90;99.90;;;;;;4989821;28;20203;-74
2023/07/12 08:46:15;;;;;;;4.13;1.35;;;14.90;99.90;;;;;;4984647;28;20210;-74
2023/07/12 08:48:47;;;;;;;4.15;1.48;;;14.80;99.90;;;;;;4982875;28;20214;-74
2023/07/12 08:51:22;;;;;;;2.60;1.20;;;14.80;99.90;;;;;;4992865;28;20243;-74
2023/07/12 08:53:53;;;;;;;2.67;1.33;;;14.80;99.90;;;;;;4989318;28;20669;-74
2023/07/12 08:56:24;;;;;;;4.18;1.38;;;14.70;99.90;;;;;;4993228;28;20200;-74
2023/07/12 08:58:58;;;;;;;2.67;1.35;;;14.60;99.90;;;;;;4993986;28;20559;-74
2023/07/12 09:01:46;;;;;;;4.35;1.50;;;14.60;99.90;;;;;;4992874;28;20223;-74
2023/07/12 09:04:25;;;;;;;2.97;1.60;;;14.50;99.90;;;;;;4991931;28;20200;-74
2023/07/12 09:06:58;;;;;;;4.28;2.00;;;14.50;99.90;;;;;;4982894;28;20206;-74
2023/07/12 09:09:33;;;;;;;5.03;2.20;;;14.50;99.90;;;;;;4992742;28;20687;-74
2023/07/12 09:12:05;;;;;;;4.82;2.08;;;14.40;99.90;;;;;;4991646;28;20215;-74
2023/07/12 09:14:39;;;;;;;6.25;1.70;;;14.40;99.90;;;;;;4993543;28;20299;-74
2023/07/12 09:17:26;;;;;;;4.57;1.70;;;14.30;99.90;;;;;;4993795;28;20569;-74
2023/07/12 09:19:57;;;;;;;4.45;1.50;;;14.20;99.90;;;;;;4990682;28;20219;-74
2023/07/12 09:22:32;;;;;;;2.33;1.40;;;14.20;99.90;;;;;;4992032;28;20230;-74
2023/07/12 09:25:04;;;;;;;2.92;1.40;;;14.10;99.90;;;;;;4994251;28;20195;-74
2023/07/12 09:27:35;;;;;;;3.67;1.88;;;14.10;99.90;;;;;;4992397;28;20234;-74
2023/07/12 09:30:09;;;;;;;3.95;1.70;;;14.10;99.90;;;;;;4992889;28;20208;-74
2023/07/12 09:32:44;;;;;;;5.00;1.80;;;14.00;99.90;;;;;;4980823;28;20204;-74
2023/07/12 09:35:27;;;;;;;5.15;1.95;;;14.00;99.90;;;;;;4992483;28;20203;-73
2023/07/12 09:38:04;;;;;;;3.58;2.00;;;13.90;99.90;;;;;;4991488;28;20203;-74
2023/07/12 09:40:42;;;;;;;5.90;2.40;;;13.90;99.90;;;;;;4989550;28;20682;-74
2023/07/12 09:43:22;;;;;;;4.22;2.22;;;13.90;99.90;;;;;;4993000;28;20202;-74
2023/07/12 09:46:02;;;;;;;5.47;2.80;;;13.80;99.90;;;;;;4996340;28;20192;-73
2023/07/12 09:48:38;;;;;;;6.70;2.75;;;13.80;99.90;;;;;;4995642;28;20277;-73
2023/07/12 09:51:25;;;;;;;6.88;3.03;;;13.70;99.90;;;;;;4994914;28;20231;-74
2023/07/12 09:54:00;;;;;;;5.20;2.53;;;13.70;99.90;;;;;;4986414;28;20203;-73
2023/07/12 09:56:39;;;;;;;4.53;2.70;;;13.60;99.90;;;;;;4994481;28;20559;-73
2023/07/12 09:59:27;;;;;;;4.65;2.60;;;13.50;99.90;;;;;;4997605;28;20242;-73
2023/07/12 10:02:03;;;;;;;5.13;2.53;;;13.50;99.90;;;;;;4988695;28;20232;-74
2023/07/12 10:04:40;;;;;;;7.78;3.03;;;13.50;99.90;;;;;;4993145;28;20207;-74
2023/07/12 10:07:20;;;;;;;9.50;3.20;;;13.40;99.90;;;;;;4994895;28;20542;-74
2023/07/12 10:09:52;;;;;;;5.72;2.95;;;13.40;99.90;;;;;;4996002;28;20218;-74
2023/07/12 10:12:29;;;;;;;6.05;2.50;;;13.40;99.90;;;;;;4995908;28;20691;-74
2023/07/12 10:15:01;;;;;;;4.95;2.33;;;13.30;99.90;;;;;;4995112;28;20203;-74
2023/07/12 10:17:40;;;;;;;4.72;2.30;;;13.30;99.90;;;;;;4994147;28;20258;-74
2023/07/12 10:20:20;;;;;;;4.35;2.60;;;13.30;99.90;;;;;;4997017;28;20210;-74
2023/07/12 10:22:52;;;;;;;7.13;2.72;;;13.30;99.90;;;;;;4990319;28;20200;-74
2023/07/12 10:25:26;;;;;;;4.68;2.72;;;13.20;99.90;;;;;;4994662;28;20196;-74
2023/07/12 10:28:03;;;;;;;4.75;2.35;;;13.20;99.90;;;;;;4995247;28;20199;-74
2023/07/12 10:30:36;;;;;;;6.15;2.38;;;13.20;99.90;;;;;;4996799;28;20630;-74
2023/07/12 10:33:16;;;;;;;5.45;2.38;;;13.20;99.90;;;;;;4995746;28;20203;-74
2023/07/12 10:35:51;;;;;;;3.05;1.92;;;13.10;99.90;;;;;;4996975;28;20196;-73
2023/07/12 10:38:25;;;;;;;5.75;2.50;;;13.10;99.90;;;;;;4993389;28;20579;-74
2023/07/12 10:40:58;;;;;;;5.72;2.30;;;13.10;99.90;;;;;;4994518;28;20204;-73
2023/07/12 10:43:35;;;;;;;3.50;2.15;;;13.00;99.90;;;;;;4995766;28;20202;-74
2023/07/12 10:46:09;;;;;;;6.47;2.30;;;13.10;99.90;;;;;;4988975;28;20564;-75
2023/07/12 10:48:49;;;;;;;4.60;2.22;;;13.00;99.90;;;;;;4995897;28;20200;-74
2023/07/12 10:51:32;;;;;;;4.97;2.33;;;13.00;99.90;;;;;;4990665;28;20583;-74
2023/07/12 10:54:03;;;;;;;3.53;2.15;;;13.00;99.90;;;;;;4987759;28;20725;-74
2023/07/12 10:56:39;;;;;;;5.45;2.10;;;13.00;99.90;;;;;;4982238;28;20196;-74
2023/07/12 10:59:50;;;;;;;4.60;2.20;;;13.00;99.90;;;;;;4995342;28;20196;-74
2023/07/12 11:02:28;;;;;;;8.13;2.38;;;12.90;99.90;;;;;;4995271;28;20668;-74
2023/07/12 11:05:02;;;;;;;3.20;2.13;;;12.90;99.90;;;;;;4985555;28;20240;-74
2023/07/12 11:07:40;;;;;;;5.70;2.10;;;12.90;99.90;;;;;;4996017;28;20242;-74
2023/07/12 11:10:27;;;;;;;3.88;2.13;;;12.90;99.90;;;;;;4996028;28;20564;-75
2023/07/12 11:13:14;;;;;;;5.15;2.15;;;12.90;99.90;;;;;;4995341;28;20223;-74
2023/07/12 11:16:00;;;;;;;4.38;2.20;;;12.90;99.90;;;;;;4976850;28;20540;-74
2023/07/12 11:18:38;;;;;;;5.25;2.10;;;12.90;99.90;;;;;;4975916;28;20279;-74
2023/07/12 11:21:28;;;;;;;5.72;2.30;;;12.90;99.90;;;;;;4976826;28;20200;-74
2023/07/12 11:23:59;;;;;;;4.50;2.00;;;12.90;99.90;;;;;;4994459;28;20203;-75
2023/07/12 11:26:32;;;;;;;3.70;1.70;;;12.80;99.90;;;;;;4996048;28;20194;-75
2023/07/12 11:29:28;;;;;;;7.70;2.28;;;12.80;99.90;;;;;;4994875;28;20203;-75
2023/07/12 11:32:08;;;;;;;3.88;2.08;;;12.80;99.90;;;;;;4995755;28;20223;-75
2023/07/12 11:34:42;;;;;;;6.30;2.00;;;12.70;99.90;;;;;;4995839;28;20551;-75
2023/07/12 11:37:21;;;;;;;4.75;2.17;;;12.70;99.90;;;;;;4995792;28;20194;-75
2023/07/12 11:39:52;;;;;;;6.10;2.15;;;12.70;99.90;;;;;;4994472;28;20195;-74
2023/07/12 11:42:28;;;;;;;3.17;2.00;;;12.70;99.90;;;;;;4995780;28;20564;-75
2023/07/12 11:45:08;;;;;;;4.68;2.00;;;12.70;99.90;;;;;;4994445;28;20566;-75
2023/07/12 11:47:44;;;;;;;3.50;2.10;;;12.70;99.90;;;;;;4994661;28;20195;-75
2023/07/12 11:50:22;;;;;;;3.30;2.40;;;12.60;99.90;;;;;;4995389;28;20667;-75
2023/07/12 11:52:57;;;;;;;3.47;2.20;;;12.60;99.90;;;;;;4993227;28;20290;-75
2023/07/12 11:55:32;;;;;;;3.47;1.67;;;12.60;99.90;;;;;;4995499;28;20213;-76
2023/07/12 11:58:03;;;;;;;3.55;2.10;;;12.60;99.90;;;;;;4988572;28;20207;-75
2023/07/12 12:00:38;;;;;;;4.18;2.20;;;12.60;99.90;;;;;;4989453;28;20230;-75
2023/07/12 12:03:09;;;;;;;4.22;2.00;;;12.60;99.90;;;;;;4995326;28;20191;-75
2023/07/12 12:05:40;;;;;;;3.33;2.00;;;12.60;99.90;;;;;;4995374;28;20198;-76
2023/07/12 12:08:19;;;;;;;5.57;1.70;;;12.60;99.90;;;;;;4993873;28;20196;-75
2023/07/12 12:10:51;;;;;;;3.20;1.60;;;12.60;99.90;;;;;;4995272;28;20615;-75
2023/07/12 12:13:33;;;;;;;3.42;1.80;;;12.60;99.90;;;;;;4995077;28;20316;-75
2023/07/12 12:16:10;;;;;;;3.25;1.70;;;12.60;99.90;;;;;;4993989;28;20192;-74
2023/07/12 12:18:51;;;;;;;3.60;1.83;;;12.50;99.90;;;;;;4992509;28;20208;-74
2023/07/12 12:21:24;;;;;;;3.67;1.80;;;12.50;99.90;;;;;;4994910;28;20209;-75
2023/07/12 12:24:07;;;;;;;3.60;1.88;;;12.50;99.90;;;;;;4992158;28;20995;-75
2023/07/12 12:26:47;;;;;;;2.65;1.70;;;12.40;99.90;;;;;;4993741;28;20199;-75
2023/07/12 12:29:19;;;;;;;3.55;1.83;;;12.40;99.90;;;;;;4993124;28;20199;-75
2023/07/12 12:31:56;;;;;;;2.85;2.00;;;12.40;99.90;;;;;;4990326;28;20230;-75
2023/07/12 12:34:37;;;;;;;4.68;2.13;;;12.40;99.90;;;;;;4991185;28;20210;-75
2023/07/12 12:37:13;;;;;;;3.17;2.10;;;12.40;99.90;;;;;;4993689;28;20571;-75
2023/07/12 12:39:59;;;;;;;4.55;2.30;;;12.40;99.90;;;;;;4979544;28;20195;-75
2023/07/12 12:42:32;;;;;;;4.18;2.38;;;12.40;99.90;;;;;;4992547;28;20199;-75
2023/07/12 12:45:03;;;;;;;3.63;2.10;;;12.40;99.90;;;;;;4992395;28;20668;-75
2023/07/12 12:47:35;;;;;;;5.47;2.30;;;12.30;99.90;;;;;;4984282;28;20205;-75
2023/07/12 12:50:06;;;;;;;5.28;2.33;;;12.30;99.90;;;;;;4992592;28;20203;-75
2023/07/12 12:52:39;;;;;;;5.78;2.60;;;12.30;99.90;;;;;;4994328;28;20569;-75
2023/07/12 12:55:13;;;;;;;5.00;2.22;;;12.30;99.90;;;;;;4991416;28;20254;-75
2023/07/12 12:57:44;;;;;;;3.78;2.05;;;12.30;99.90;;;;;;4993343;28;20200;-75
2023/07/12 13:00:19;;;;;;;3.33;2.05;;;12.20;99.90;;;;;;4991209;28;20715;-75
2023/07/12 13:02:53;;;;;;;3.85;2.03;;;12.20;99.90;;;;;;4991565;28;20277;-75
2023/07/12 13:05:25;;;;;;;3.92;2.30;;;12.20;99.90;;;;;;4990836;28;20214;-75
2023/07/12 13:08:04;;;;;;;3.85;2.30;;;12.20;99.90;;;;;;4993127;28;20195;-74
2023/07/12 13:10:37;;;;;;;4.63;2.13;;;12.10;99.90;;;;;;4992468;28;20199;-75
2023/07/12 13:13:11;;;;;;;4.53;2.30;;;12.20;99.90;;;;;;4993087;28;20215;-75
2023/07/12 13:15:42;;;;;;;6.22;2.50;;;12.20;99.90;;;;;;4992869;28;20191;-75
2023/07/12 13:18:15;;;;;;;3.22;2.40;;;12.20;99.90;;;;;;4992601;28;20543;-75
2023/07/12 13:20:47;;;;;;;4.80;2.63;;;12.20;99.90;;;;;;4990314;28;20689;-75